PWSweather.com
Personal Weather Stations
Station Observations
MAKAWAOWX1
Up Country Maui, Makawao, HI 96768

Up Country MauiMakawao, HI 96768

Lat: 20.856944, Lon: -156.3149667

Elevation: 1500

Station Type: Davis Vantage Pro

www.dwayneyamato@hawaiiantel.net

High Low Average
Temperature 69.9°F21.1°C 62.0°F16.7°C 64.8°F18.2°C
Dew Point 63.2°F17.3°C 59.2°F15.1°C 60.7°F15.9°C
Winds 15.1 mph 24.3 kmh 4.6 mph 7.4 kmh 10.0 mph E16.1 kmh E
Wind Gusts 26.0 mph41.8 kmh 7.0 mph11.3 kmh 16.0 mph25.7 kmh
Humidity 92% 72% 87%
Pressure 30.06 in1017.9 mb 29.95 in1014.2 mb -
Precipitation 0.46 in11.7 mm - -
Hour Temp Dew Point Humidity Winds Wind Gusts Pressure Precip Precip Rate Daily Precip Total
12:10 AM 63.9°F17.7°C 59.3°F15.2°C 85% 6.2 mph WSW10.0 kmh WSW 11.0 mph17.7 kmh 30.00 in1015.9 mb 0.00 in0.0 mm 0.00 in/hr0.0 mm/hr 0.00 in0.0 mm
12:20 AM 63.7°F17.6°C 59.4°F15.2°C 86% 6.5 mph E10.5 kmh E 17.0 mph27.4 kmh 30.00 in1015.9 mb 0.00 in0.0 mm 0.00 in/hr0.0 mm/hr 0.00 in0.0 mm
12:40 AM 63.5°F17.5°C 59.6°F15.3°C 87% 8.2 mph ENE13.2 kmh ENE 12.0 mph19.3 kmh 29.99 in1015.6 mb 0.00 in0.0 mm 0.00 in/hr0.0 mm/hr 0.00 in0.0 mm
12:50 AM 63.4°F17.4°C 59.5°F15.3°C 87% 4.6 mph E7.4 kmh E 12.0 mph19.3 kmh 29.99 in1015.6 mb 0.00 in0.0 mm 0.00 in/hr0.0 mm/hr 0.00 in0.0 mm
01:00 AM 63.5°F17.5°C 59.2°F15.1°C 86% 8.0 mph ENE12.9 kmh ENE 13.0 mph20.9 kmh 29.99 in1015.6 mb 0.00 in0.0 mm 0.00 in/hr0.0 mm/hr 0.00 in0.0 mm
01:10 AM 64.0°F17.8°C 59.4°F15.2°C 85% 9.2 mph SE14.8 kmh SE 16.0 mph25.7 kmh 29.99 in1015.6 mb 0.00 in0.0 mm 0.00 in/hr0.0 mm/hr 0.00 in0.0 mm
01:20 AM 64.0°F17.8°C 59.7°F15.4°C 86% 7.6 mph ENE12.2 kmh ENE 11.0 mph17.7 kmh 29.99 in1015.6 mb 0.01 in0.3 mm 0.06 in/hr1.5 mm/hr 0.01 in0.3 mm
01:30 AM 63.7°F17.6°C 60.1°F15.6°C 88% 11.0 mph ENE17.7 kmh ENE 19.0 mph30.6 kmh 29.98 in1015.2 mb 0.00 in0.0 mm 0.00 in/hr0.0 mm/hr 0.01 in0.3 mm
02:00 AM 63.4°F17.4°C 60.4°F15.8°C 90% 7.5 mph NE12.1 kmh NE 14.0 mph22.5 kmh 29.97 in1014.9 mb 0.02 in0.5 mm 0.04 in/hr1.0 mm/hr 0.03 in0.8 mm
02:10 AM 63.5°F17.5°C 60.8°F16.0°C 91% 8.3 mph E13.4 kmh E 14.0 mph22.5 kmh 29.97 in1014.9 mb 0.01 in0.3 mm 0.06 in/hr1.5 mm/hr 0.04 in1.0 mm
02:20 AM 63.5°F17.5°C 60.8°F16.0°C 91% 9.4 mph E15.1 kmh E 12.0 mph19.3 kmh 29.97 in1014.9 mb 0.02 in0.5 mm 0.12 in/hr3.0 mm/hr 0.06 in1.5 mm
02:30 AM 63.7°F17.6°C 61.0°F16.1°C 91% 7.6 mph E12.2 kmh E 17.0 mph27.4 kmh 29.97 in1014.9 mb 0.02 in0.5 mm 0.12 in/hr3.0 mm/hr 0.08 in2.0 mm
02:40 AM 63.7°F17.6°C 61.0°F16.1°C 91% 9.0 mph E14.5 kmh E 14.0 mph22.5 kmh 29.96 in1014.6 mb 0.01 in0.3 mm 0.06 in/hr1.5 mm/hr 0.09 in2.3 mm
02:50 AM 63.5°F17.5°C 61.1°F16.2°C 92% 10.8 mph ENE17.4 kmh ENE 22.0 mph35.4 kmh 29.96 in1014.6 mb 0.03 in0.8 mm 0.18 in/hr4.6 mm/hr 0.12 in3.0 mm
03:00 AM 63.4°F17.4°C 60.7°F15.9°C 91% 8.2 mph SW13.2 kmh SW 16.0 mph25.7 kmh 29.96 in1014.6 mb 0.02 in0.5 mm 0.02 in/hr0.5 mm/hr 0.13 in3.3 mm
03:10 AM 63.2°F17.3°C 60.5°F15.8°C 91% 9.4 mph ENE15.1 kmh ENE 18.0 mph29.0 kmh 29.96 in1014.6 mb 0.01 in0.3 mm 0.06 in/hr1.5 mm/hr 0.14 in3.6 mm
03:20 AM 63.1°F17.3°C 60.4°F15.8°C 91% 8.1 mph E13.0 kmh E 12.0 mph19.3 kmh 29.96 in1014.6 mb 0.00 in0.0 mm 0.00 in/hr0.0 mm/hr 0.14 in3.6 mm
03:30 AM 63.2°F17.3°C 60.5°F15.8°C 91% 9.3 mph E15.0 kmh E 15.0 mph24.1 kmh 29.96 in1014.6 mb 0.01 in0.3 mm 0.06 in/hr1.5 mm/hr 0.15 in3.8 mm
03:40 AM 63.2°F17.3°C 60.8°F16.0°C 92% 10.5 mph E16.9 kmh E 18.0 mph29.0 kmh 29.95 in1014.2 mb 0.00 in0.0 mm 0.00 in/hr0.0 mm/hr 0.15 in3.8 mm
03:50 AM 62.9°F17.2°C 60.5°F15.8°C 92% 9.6 mph ENE15.4 kmh ENE 14.0 mph22.5 kmh 29.96 in1014.6 mb 0.02 in0.5 mm 0.12 in/hr3.0 mm/hr 0.17 in4.3 mm
04:00 AM 63.1°F17.3°C 60.7°F15.9°C 92% 7.7 mph ENE12.4 kmh ENE 17.0 mph27.4 kmh 29.97 in1014.9 mb 0.03 in0.8 mm 0.04 in/hr1.0 mm/hr 0.19 in4.8 mm
04:10 AM 63.2°F17.3°C 60.8°F16.0°C 92% 7.6 mph ENE12.2 kmh ENE 7.0 mph11.3 kmh 29.98 in1015.2 mb 0.02 in0.5 mm 0.12 in/hr3.0 mm/hr 0.21 in5.3 mm
04:30 AM 62.9°F17.2°C 60.5°F15.8°C 92% 7.0 mph SE11.3 kmh SE 15.0 mph24.1 kmh 29.98 in1015.2 mb 0.00 in0.0 mm 0.00 in/hr0.0 mm/hr 0.21 in5.3 mm
04:40 AM 62.9°F17.2°C 60.5°F15.8°C 92% 11.8 mph NE19.0 kmh NE 20.0 mph32.2 kmh 29.98 in1015.2 mb 0.00 in0.0 mm 0.00 in/hr0.0 mm/hr 0.21 in5.3 mm
04:50 AM 62.7°F17.1°C 60.3°F15.7°C 92% 7.3 mph ENE11.7 kmh ENE 11.0 mph17.7 kmh 29.98 in1015.2 mb 0.01 in0.3 mm 0.06 in/hr1.5 mm/hr 0.22 in5.6 mm
05:00 AM 63.1°F17.3°C 60.7°F15.9°C 92% 6.4 mph E10.3 kmh E 10.0 mph16.1 kmh 29.98 in1015.2 mb 0.01 in0.3 mm 0.01 in/hr0.3 mm/hr 0.23 in5.8 mm
05:20 AM 62.9°F17.2°C 60.5°F15.8°C 92% 9.2 mph NE14.8 kmh NE 20.0 mph32.2 kmh 29.98 in1015.2 mb 0.01 in0.3 mm 0.03 in/hr0.8 mm/hr 0.26 in6.6 mm
05:30 AM 62.9°F17.2°C 60.5°F15.8°C 92% 7.7 mph E12.4 kmh E 12.0 mph19.3 kmh 29.99 in1015.6 mb 0.02 in0.5 mm 0.12 in/hr3.0 mm/hr 0.27 in6.9 mm
05:40 AM 63.1°F17.3°C 60.7°F15.9°C 92% 6.0 mph NE9.7 kmh NE 8.0 mph12.9 kmh 29.99 in1015.6 mb 0.01 in0.3 mm 0.06 in/hr1.5 mm/hr 0.28 in7.1 mm
05:50 AM 62.7°F17.1°C 60.3°F15.7°C 92% 9.8 mph E15.8 kmh E 14.0 mph22.5 kmh 29.99 in1015.6 mb 0.01 in0.3 mm 0.06 in/hr1.5 mm/hr 0.29 in7.4 mm
06:10 AM 62.6°F17.0°C 60.2°F15.7°C 92% 10.8 mph NE17.4 kmh NE 19.0 mph30.6 kmh 30.01 in1016.3 mb 0.02 in0.5 mm 0.03 in/hr0.8 mm/hr 0.31 in7.9 mm
06:50 AM 62.1°F16.7°C 59.7°F15.4°C 92% 11.4 mph E18.3 kmh E 21.0 mph33.8 kmh 30.02 in1016.6 mb 0.01 in0.3 mm 0.02 in/hr0.5 mm/hr 0.38 in9.7 mm
07:10 AM 62.0°F16.7°C 59.6°F15.3°C 92% 12.2 mph E19.6 kmh E 18.0 mph29.0 kmh 30.03 in1016.9 mb 0.00 in0.0 mm 0.00 in/hr0.0 mm/hr 0.39 in9.9 mm
07:30 AM 62.1°F16.7°C 59.7°F15.4°C 92% 8.8 mph E14.2 kmh E 14.0 mph22.5 kmh 30.03 in1016.9 mb 0.01 in0.3 mm 0.03 in/hr0.8 mm/hr 0.41 in10.4 mm
07:40 AM 62.3°F16.8°C 59.6°F15.3°C 91% 11.6 mph NE18.7 kmh NE 21.0 mph33.8 kmh 30.04 in1017.3 mb 0.00 in0.0 mm 0.00 in/hr0.0 mm/hr 0.41 in10.4 mm
07:50 AM 62.4°F16.9°C 60.0°F15.6°C 92% 8.9 mph E14.3 kmh E 13.0 mph20.9 kmh 30.05 in1017.6 mb 0.01 in0.3 mm 0.06 in/hr1.5 mm/hr 0.42 in10.7 mm
08:00 AM 62.6°F17.0°C 59.9°F15.5°C 91% 11.4 mph E18.3 kmh E 19.0 mph30.6 kmh 30.05 in1017.6 mb 0.01 in0.3 mm 0.01 in/hr0.3 mm/hr 0.43 in10.9 mm
08:10 AM 62.4°F16.9°C 59.7°F15.4°C 91% 10.5 mph ESE16.9 kmh ESE 17.0 mph27.4 kmh 30.05 in1017.6 mb 0.00 in0.0 mm 0.00 in/hr0.0 mm/hr 0.43 in10.9 mm
08:30 AM 62.9°F17.2°C 60.2°F15.7°C 91% 9.7 mph ENE15.6 kmh ENE 13.0 mph20.9 kmh 30.06 in1017.9 mb 0.00 in0.0 mm 0.00 in/hr0.0 mm/hr 0.44 in11.2 mm
08:40 AM 63.1°F17.3°C 60.5°F15.8°C 91% 12.0 mph ESE19.3 kmh ESE 21.0 mph33.8 kmh 30.06 in1017.9 mb 0.01 in0.3 mm 0.06 in/hr1.5 mm/hr 0.45 in11.4 mm
08:50 AM 63.2°F17.3°C 60.5°F15.8°C 91% 12.4 mph E20.0 kmh E 17.0 mph27.4 kmh 30.06 in1017.9 mb 0.00 in0.0 mm 0.00 in/hr0.0 mm/hr 0.45 in11.4 mm
09:00 AM 63.4°F17.4°C 60.7°F15.9°C 91% 11.1 mph ESE17.9 kmh ESE 14.0 mph22.5 kmh 30.06 in1017.9 mb 0.00 in0.0 mm 0.00 in/hr0.0 mm/hr 0.45 in11.4 mm
09:20 AM 63.5°F17.5°C 60.5°F15.8°C 90% 11.6 mph E18.7 kmh E 17.0 mph27.4 kmh 30.05 in1017.6 mb 0.00 in0.0 mm 0.00 in/hr0.0 mm/hr 0.45 in11.4 mm
09:30 AM 64.3°F17.9°C 61.6°F16.4°C 91% 10.4 mph E16.7 kmh E 12.0 mph19.3 kmh 30.05 in1017.6 mb 0.01 in0.3 mm 0.06 in/hr1.5 mm/hr 0.46 in11.7 mm
09:40 AM 64.5°F18.1°C 61.8°F16.6°C 91% 12.0 mph E19.3 kmh E 19.0 mph30.6 kmh 30.05 in1017.6 mb 0.00 in0.0 mm 0.00 in/hr0.0 mm/hr 0.46 in11.7 mm
09:50 AM 64.8°F18.2°C 62.1°F16.7°C 91% 10.3 mph NE16.6 kmh NE 10.0 mph16.1 kmh 30.05 in1017.6 mb 0.00 in0.0 mm 0.00 in/hr0.0 mm/hr 0.46 in11.7 mm
10:00 AM 65.8°F18.8°C 62.4°F16.9°C 89% 10.1 mph ENE16.3 kmh ENE 17.0 mph27.4 kmh 30.05 in1017.6 mb 0.00 in0.0 mm 0.00 in/hr0.0 mm/hr 0.46 in11.7 mm
10:10 AM 66.2°F19.0°C 61.6°F16.4°C 85% 15.0 mph SE24.1 kmh SE 24.0 mph38.6 kmh 30.05 in1017.6 mb 0.00 in0.0 mm 0.00 in/hr0.0 mm/hr 0.46 in11.7 mm
10:20 AM 66.4°F19.1°C 61.1°F16.2°C 83% 15.1 mph ESE24.3 kmh ESE 26.0 mph41.8 kmh 30.05 in1017.6 mb 0.00 in0.0 mm 0.00 in/hr0.0 mm/hr 0.46 in11.7 mm
10:40 AM 67.4°F19.7°C 63.1°F17.3°C 86% 11.4 mph E18.3 kmh E 19.0 mph30.6 kmh 30.05 in1017.6 mb 0.00 in0.0 mm 0.00 in/hr0.0 mm/hr 0.46 in11.7 mm
10:50 AM 67.4°F19.7°C 61.7°F16.5°C 82% 11.5 mph NE18.5 kmh NE 14.0 mph22.5 kmh 30.05 in1017.6 mb 0.00 in0.0 mm 0.00 in/hr0.0 mm/hr 0.46 in11.7 mm
11:00 AM 68.3°F20.2°C 63.2°F17.3°C 84% 10.9 mph E17.5 kmh E 18.0 mph29.0 kmh 30.05 in1017.6 mb 0.00 in0.0 mm 0.00 in/hr0.0 mm/hr 0.46 in11.7 mm
11:10 AM 68.4°F20.2°C 62.7°F17.1°C 82% 11.9 mph NNE19.2 kmh NNE 19.0 mph30.6 kmh 30.04 in1017.3 mb 0.00 in0.0 mm 0.00 in/hr0.0 mm/hr 0.46 in11.7 mm
11:20 AM 69.4°F20.8°C 62.2°F16.8°C 78% 14.5 mph SE23.3 kmh SE 21.0 mph33.8 kmh 30.05 in1017.6 mb 0.00 in0.0 mm 0.00 in/hr0.0 mm/hr 0.46 in11.7 mm
11:30 AM 69.3°F20.7°C 61.8°F16.6°C 77% 11.6 mph E18.7 kmh E 20.0 mph32.2 kmh 30.04 in1017.3 mb 0.00 in0.0 mm 0.00 in/hr0.0 mm/hr 0.46 in11.7 mm
11:40 AM 69.8°F21.0°C 61.1°F16.2°C 74% 12.2 mph ENE19.6 kmh ENE 18.0 mph29.0 kmh 30.04 in1017.3 mb 0.00 in0.0 mm 0.00 in/hr0.0 mm/hr 0.46 in11.7 mm
11:50 AM 69.9°F21.1°C 60.8°F16.0°C 73% 14.6 mph E23.5 kmh E 22.0 mph35.4 kmh 30.04 in1017.3 mb 0.00 in0.0 mm 0.00 in/hr0.0 mm/hr 0.46 in11.7 mm
12:00 PM 69.9°F21.1°C 61.6°F16.4°C 75% 11.9 mph NE19.2 kmh NE 15.0 mph24.1 kmh 30.04 in1017.3 mb 0.00 in0.0 mm 0.00 in/hr0.0 mm/hr 0.46 in11.7 mm
12:30 PM 69.4°F20.8°C 60.0°F15.6°C 72% 11.2 mph W18.0 kmh W 14.0 mph22.5 kmh 30.04 in1017.3 mb 0.00 in0.0 mm 0.00 in/hr0.0 mm/hr 0.46 in11.7 mm
12:40 PM 69.6°F20.9°C 60.6°F15.9°C 73% 15.1 mph E24.3 kmh E 19.0 mph30.6 kmh 30.04 in1017.3 mb 0.00 in0.0 mm 0.00 in/hr0.0 mm/hr 0.46 in11.7 mm
12:50 PM 69.1°F20.6°C 59.7°F15.4°C 72% 13.0 mph E20.9 kmh E 14.0 mph22.5 kmh 30.04 in1017.3 mb 0.00 in0.0 mm 0.00 in/hr0.0 mm/hr 0.46 in11.7 mm
01:00 PM 69.6°F20.9°C 60.9°F16.1°C 74% 13.4 mph ESE21.6 kmh ESE 20.0 mph32.2 kmh 30.03 in1016.9 mb 0.00 in0.0 mm 0.00 in/hr0.0 mm/hr 0.46 in11.7 mm
01:10 PM 69.1°F20.6°C 61.9°F16.6°C 78% 13.6 mph E21.9 kmh E 18.0 mph29.0 kmh 30.04 in1017.3 mb 0.00 in0.0 mm 0.00 in/hr0.0 mm/hr 0.46 in11.7 mm
01:20 PM 69.4°F20.8°C 62.2°F16.8°C 78% 12.4 mph ESE20.0 kmh ESE 20.0 mph32.2 kmh 30.04 in1017.3 mb 0.00 in0.0 mm 0.00 in/hr0.0 mm/hr 0.46 in11.7 mm
01:30 PM 69.1°F20.6°C 62.7°F17.1°C 80% 10.6 mph E17.1 kmh E 17.0 mph27.4 kmh 30.04 in1017.3 mb 0.00 in0.0 mm 0.00 in/hr0.0 mm/hr 0.46 in11.7 mm
01:50 PM 68.9°F20.5°C 63.6°F17.6°C 83% 14.4 mph SE23.2 kmh SE 20.0 mph32.2 kmh 30.04 in1017.3 mb 0.01 in0.3 mm 0.03 in/hr0.8 mm/hr 0.47 in11.9 mm
02:00 PM 67.6°F19.8°C 63.3°F17.4°C 86% 9.8 mph NE15.8 kmh NE 12.0 mph19.3 kmh 30.05 in1017.6 mb 0.00 in0.0 mm 0.00 in/hr0.0 mm/hr 0.47 in11.9 mm
02:20 PM 67.7°F19.8°C 64.0°F17.8°C 88% 8.6 mph NE13.8 kmh NE 14.0 mph22.5 kmh 30.03 in1016.9 mb 0.01 in0.3 mm 0.03 in/hr0.8 mm/hr 0.48 in12.2 mm
02:30 PM 68.3°F20.2°C 63.9°F17.7°C 86% 11.9 mph E19.2 kmh E 16.0 mph25.7 kmh 30.03 in1016.9 mb 0.00 in0.0 mm 0.00 in/hr0.0 mm/hr 0.48 in12.2 mm
02:40 PM 68.9°F20.5°C 63.5°F17.5°C 83% 6.8 mph ENE10.9 kmh ENE 17.0 mph27.4 kmh 30.02 in1016.6 mb 0.00 in0.0 mm 0.00 in/hr0.0 mm/hr 0.48 in12.2 mm
03:10 PM 67.8°F19.9°C 62.7°F17.1°C 84% 14.3 mph E23.0 kmh E 18.0 mph29.0 kmh 30.02 in1016.6 mb 0.00 in0.0 mm 0.00 in/hr0.0 mm/hr 0.48 in12.2 mm
03:20 PM 67.4°F19.7°C 63.4°F17.4°C 87% 8.3 mph E13.4 kmh E 14.0 mph22.5 kmh 30.03 in1016.9 mb 0.00 in0.0 mm 0.00 in/hr0.0 mm/hr 0.48 in12.2 mm
03:30 PM 66.9°F19.4°C 62.6°F17.0°C 86% 11.8 mph SE19.0 kmh SE 19.0 mph30.6 kmh 30.02 in1016.6 mb 0.00 in0.0 mm 0.00 in/hr0.0 mm/hr 0.48 in12.2 mm
03:40 PM 66.3°F19.1°C 62.0°F16.7°C 86% 10.7 mph ENE17.2 kmh ENE 18.0 mph29.0 kmh 30.02 in1016.6 mb 0.00 in0.0 mm 0.00 in/hr0.0 mm/hr 0.48 in12.2 mm
03:50 PM 66.3°F19.1°C 62.0°F16.7°C 86% 13.0 mph E20.9 kmh E 19.0 mph30.6 kmh 30.02 in1016.6 mb 0.00 in0.0 mm 0.00 in/hr0.0 mm/hr 0.48 in12.2 mm
04:00 PM 66.3°F19.1°C 62.3°F16.8°C 87% 11.6 mph ESE18.7 kmh ESE 13.0 mph20.9 kmh 30.02 in1016.6 mb 0.01 in0.3 mm 0.01 in/hr0.3 mm/hr 0.49 in12.4 mm
04:10 PM 66.3°F19.1°C 62.0°F16.7°C 86% 11.7 mph E18.8 kmh E 17.0 mph27.4 kmh 30.02 in1016.6 mb 0.00 in0.0 mm 0.00 in/hr0.0 mm/hr 0.49 in12.4 mm
04:20 PM 66.3°F19.1°C 61.7°F16.5°C 85% 14.5 mph E23.3 kmh E 20.0 mph32.2 kmh 30.02 in1016.6 mb 0.00 in0.0 mm 0.00 in/hr0.0 mm/hr 0.49 in12.4 mm
04:30 PM 66.6°F19.2°C 61.6°F16.4°C 84% 11.8 mph E19.0 kmh E 17.0 mph27.4 kmh 30.02 in1016.6 mb 0.00 in0.0 mm 0.00 in/hr0.0 mm/hr 0.49 in12.4 mm
04:40 PM 66.1°F18.9°C 60.8°F16.0°C 83% 10.9 mph SE17.5 kmh SE 14.0 mph22.5 kmh 30.02 in1016.6 mb 0.00 in0.0 mm 0.00 in/hr0.0 mm/hr 0.49 in12.4 mm
04:50 PM 66.3°F19.1°C 60.6°F15.9°C 82% 9.4 mph NE15.1 kmh NE 16.0 mph25.7 kmh 30.02 in1016.6 mb 0.00 in0.0 mm 0.00 in/hr0.0 mm/hr 0.49 in12.4 mm
05:00 PM 66.5°F19.2°C 59.8°F15.4°C 79% 11.5 mph ENE18.5 kmh ENE 22.0 mph35.4 kmh 30.02 in1016.6 mb 0.00 in0.0 mm 0.00 in/hr0.0 mm/hr 0.49 in12.4 mm
05:10 PM 66.4°F19.1°C 59.3°F15.2°C 78% 9.0 mph E14.5 kmh E 18.0 mph29.0 kmh 30.01 in1016.3 mb 0.00 in0.0 mm 0.00 in/hr0.0 mm/hr 0.49 in12.4 mm
05:20 PM 66.1°F18.9°C 59.0°F15.0°C 78% 14.4 mph E23.2 kmh E 24.0 mph38.6 kmh 30.02 in1016.6 mb 0.00 in0.0 mm 0.00 in/hr0.0 mm/hr 0.49 in12.4 mm
05:40 PM 65.3°F18.5°C 58.3°F14.6°C 78% 14.1 mph ESE22.7 kmh ESE 19.0 mph30.6 kmh 30.01 in1016.3 mb 0.00 in0.0 mm 0.00 in/hr0.0 mm/hr 0.49 in12.4 mm
05:50 PM 64.7°F18.2°C 58.0°F14.4°C 79% 12.5 mph ESE20.1 kmh ESE 20.0 mph32.2 kmh 30.02 in1016.6 mb 0.00 in0.0 mm 0.00 in/hr0.0 mm/hr 0.49 in12.4 mm
06:00 PM 63.9°F17.7°C 57.6°F14.2°C 80% 14.0 mph SE22.5 kmh SE 21.0 mph33.8 kmh 30.02 in1016.6 mb 0.00 in0.0 mm 0.00 in/hr0.0 mm/hr 0.49 in12.4 mm
06:10 PM 63.4°F17.4°C 57.8°F14.3°C 82% 10.1 mph E16.3 kmh E 18.0 mph29.0 kmh 30.03 in1016.9 mb 0.00 in0.0 mm 0.00 in/hr0.0 mm/hr 0.49 in12.4 mm
06:20 PM 63.1°F17.3°C 57.5°F14.2°C 82% 14.5 mph E23.3 kmh E 17.0 mph27.4 kmh 30.04 in1017.3 mb 0.00 in0.0 mm 0.00 in/hr0.0 mm/hr 0.49 in12.4 mm
06:30 PM 62.9°F17.2°C 57.3°F14.1°C 82% 8.2 mph ENE13.2 kmh ENE 11.0 mph17.7 kmh 30.04 in1017.3 mb 0.00 in0.0 mm 0.00 in/hr0.0 mm/hr 0.49 in12.4 mm
06:40 PM 62.6°F17.0°C 57.0°F13.9°C 82% 6.9 mph E11.1 kmh E 18.0 mph29.0 kmh 30.04 in1017.3 mb 0.00 in0.0 mm 0.00 in/hr0.0 mm/hr 0.49 in12.4 mm
07:00 PM 62.6°F17.0°C 56.7°F13.7°C 81% 11.5 mph E18.5 kmh E 11.0 mph17.7 kmh 30.06 in1017.9 mb 0.00 in0.0 mm 0.00 in/hr0.0 mm/hr 0.49 in12.4 mm
07:10 PM 62.4°F16.9°C 56.1°F13.4°C 80% 7.7 mph ESE12.4 kmh ESE 10.0 mph16.1 kmh 30.06 in1017.9 mb 0.00 in0.0 mm 0.00 in/hr0.0 mm/hr 0.49 in12.4 mm
07:20 PM 62.6°F17.0°C 56.7°F13.7°C 81% 8.4 mph E13.5 kmh E 12.0 mph19.3 kmh 30.06 in1017.9 mb 0.00 in0.0 mm 0.00 in/hr0.0 mm/hr 0.49 in12.4 mm
07:30 PM 62.6°F17.0°C 56.3°F13.5°C 80% 13.9 mph E22.4 kmh E 20.0 mph32.2 kmh 30.06 in1017.9 mb 0.00 in0.0 mm 0.00 in/hr0.0 mm/hr 0.49 in12.4 mm
07:40 PM 62.6°F17.0°C 56.0°F13.3°C 79% 8.7 mph ENE14.0 kmh ENE 12.0 mph19.3 kmh 30.06 in1017.9 mb 0.00 in0.0 mm 0.00 in/hr0.0 mm/hr 0.49 in12.4 mm
07:50 PM 62.6°F17.0°C 56.0°F13.3°C 79% 9.7 mph E15.6 kmh E 17.0 mph27.4 kmh 30.06 in1017.9 mb 0.00 in0.0 mm 0.00 in/hr0.0 mm/hr 0.49 in12.4 mm
08:00 PM 62.7°F17.1°C 56.1°F13.4°C 79% 8.6 mph ENE13.8 kmh ENE 16.0 mph25.7 kmh 30.06 in1017.9 mb 0.00 in0.0 mm 0.00 in/hr0.0 mm/hr 0.49 in12.4 mm
08:10 PM 62.7°F17.1°C 55.7°F13.2°C 78% 10.1 mph E16.3 kmh E 17.0 mph27.4 kmh 30.07 in1018.3 mb 0.00 in0.0 mm 0.00 in/hr0.0 mm/hr 0.49 in12.4 mm
08:20 PM 62.7°F17.1°C 55.0°F12.8°C 76% 12.0 mph E19.3 kmh E 17.0 mph27.4 kmh 30.07 in1018.3 mb 0.00 in0.0 mm 0.00 in/hr0.0 mm/hr 0.49 in12.4 mm
08:30 PM 62.9°F17.2°C 54.9°F12.7°C 75% 11.0 mph E17.7 kmh E 16.0 mph25.7 kmh 30.07 in1018.3 mb 0.00 in0.0 mm 0.00 in/hr0.0 mm/hr 0.49 in12.4 mm
08:50 PM 63.1°F17.3°C 55.0°F12.8°C 75% 9.0 mph E14.5 kmh E 14.0 mph22.5 kmh 30.07 in1018.3 mb 0.00 in0.0 mm 0.00 in/hr0.0 mm/hr 0.49 in12.4 mm
09:00 PM 63.2°F17.3°C 56.2°F13.4°C 78% 8.7 mph E14.0 kmh E 18.0 mph29.0 kmh 30.07 in1018.3 mb 0.00 in0.0 mm 0.00 in/hr0.0 mm/hr 0.49 in12.4 mm
09:10 PM 63.1°F17.3°C 56.5°F13.6°C 79% 11.8 mph E19.0 kmh E 19.0 mph30.6 kmh 30.07 in1018.3 mb 0.00 in0.0 mm 0.00 in/hr0.0 mm/hr 0.49 in12.4 mm
09:20 PM 62.9°F17.2°C 56.3°F13.5°C 79% 13.2 mph E21.2 kmh E 19.0 mph30.6 kmh 30.07 in1018.3 mb 0.00 in0.0 mm 0.00 in/hr0.0 mm/hr 0.49 in12.4 mm
09:30 PM 63.1°F17.3°C 57.2°F14.0°C 81% 10.2 mph SE16.4 kmh SE 14.0 mph22.5 kmh 30.07 in1018.3 mb 0.00 in0.0 mm 0.00 in/hr0.0 mm/hr 0.49 in12.4 mm
10:20 PM 62.7°F17.1°C 57.1°F13.9°C 82% 9.3 mph E15.0 kmh E 12.0 mph19.3 kmh 30.08 in1018.6 mb 0.00 in0.0 mm 0.00 in/hr0.0 mm/hr 0.49 in12.4 mm
10:30 PM 62.9°F17.2°C 57.0°F13.9°C 81% 11.7 mph ESE18.8 kmh ESE 16.0 mph25.7 kmh 30.08 in1018.6 mb 0.00 in0.0 mm 0.00 in/hr0.0 mm/hr 0.49 in12.4 mm
10:40 PM 63.1°F17.3°C 56.1°F13.4°C 78% 4.3 mph E6.9 kmh E 14.0 mph22.5 kmh 30.07 in1018.3 mb 0.00 in0.0 mm 0.00 in/hr0.0 mm/hr 0.49 in12.4 mm
10:50 PM 63.4°F17.4°C 56.4°F13.6°C 78% 6.9 mph NE11.1 kmh NE 11.0 mph17.7 kmh 30.07 in1018.3 mb 0.00 in0.0 mm 0.00 in/hr0.0 mm/hr 0.49 in12.4 mm
11:00 PM 63.2°F17.3°C 57.3°F14.1°C 81% 7.7 mph E12.4 kmh E 13.0 mph20.9 kmh 30.08 in1018.6 mb 0.00 in0.0 mm 0.00 in/hr0.0 mm/hr 0.49 in12.4 mm
11:10 PM 63.1°F17.3°C 57.5°F14.2°C 82% 10.0 mph NE16.1 kmh NE 11.0 mph17.7 kmh 30.08 in1018.6 mb 0.00 in0.0 mm 0.00 in/hr0.0 mm/hr 0.49 in12.4 mm
11:30 PM 63.1°F17.3°C 57.2°F14.0°C 81% 9.8 mph SW15.8 kmh SW 13.0 mph20.9 kmh 30.07 in1018.3 mb 0.00 in0.0 mm 0.00 in/hr0.0 mm/hr 0.49 in12.4 mm
11:40 PM 63.2°F17.3°C 57.3°F14.1°C 81% 7.5 mph E12.1 kmh E 12.0 mph19.3 kmh 30.07 in1018.3 mb 0.00 in0.0 mm 0.00 in/hr0.0 mm/hr 0.49 in12.4 mm
11:50 PM 62.9°F17.2°C 58.3°F14.6°C 85% 8.7 mph ESE14.0 kmh ESE 11.0 mph17.7 kmh 30.07 in1018.3 mb 0.00 in0.0 mm 0.00 in/hr0.0 mm/hr 0.49 in12.4 mm